Time;durP1;ratioP1;P1;durP2;ratioP2;P2;SDS_P1;SDS_P2;PMS_P1;PMS_P2;Temp;Humidity;BMP_temperature;BMP_pressure;BME280_temperature;BME280_humidity;BME280_pressure;Samples;Min_cycle;Max_cycle;Signal;HPM_P1;HPM_P2
2023/01/25 00:01:05;;;;;;;21.17;19.07;;;14.10;61.80;;;;;;5087553;28;20232;-45
2023/01/25 00:03:34;;;;;;;22.43;20.33;;;14.10;61.80;;;;;;5090668;28;20662;-45
2023/01/25 00:06:08;;;;;;;20.97;18.97;;;14.10;61.80;;;;;;5084201;28;20296;-45
2023/01/25 00:08:52;;;;;;;21.77;19.67;;;14.10;61.80;;;;;;5083081;28;20228;-45
2023/01/25 00:11:23;;;;;;;21.87;19.77;;;14.10;61.80;;;;;;5084819;28;20193;-45
2023/01/25 00:13:54;;;;;;;21.43;19.33;;;14.10;61.80;;;;;;5068471;28;20220;-45
2023/01/25 00:16:24;;;;;;;22.33;20.13;;;14.10;61.90;;;;;;5045449;28;20201;-45
2023/01/25 00:18:52;;;;;;;20.93;18.73;;;14.10;61.80;;;;;;5073490;28;20193;-45
2023/01/25 00:21:25;;;;;;;21.93;19.83;;;14.10;61.90;;;;;;5082688;28;20306;-45
2023/01/25 00:23:52;;;;;;;21.67;19.57;;;14.10;61.80;;;;;;5068498;28;20534;-45
2023/01/25 00:26:24;;;;;;;20.20;18.30;;;14.10;61.90;;;;;;5072798;28;20233;-45
2023/01/25 00:28:54;;;;;;;20.30;18.40;;;14.10;62.00;;;;;;5087002;28;20292;-45
2023/01/25 00:32:10;;;;;;;20.23;18.27;;;14.10;61.80;;;;;;5085700;28;20213;-45
2023/01/25 00:34:48;;;;;;;20.33;18.33;;;14.10;62.00;;;;;;5078993;28;20252;-45
2023/01/25 00:37:48;;;;;;;20.03;18.03;;;14.10;62.00;;;;;;5088002;28;20562;-45
2023/01/25 00:40:20;;;;;;;18.87;17.17;;;14.10;62.00;;;;;;5081606;28;20213;-45
2023/01/25 00:42:49;;;;;;;21.03;19.07;;;14.10;62.00;;;;;;5092097;28;20199;-45
2023/01/25 00:45:34;;;;;;;19.20;17.30;;;14.10;62.00;;;;;;5087362;28;20220;-45
2023/01/25 00:48:05;;;;;;;19.90;17.90;;;14.10;62.00;;;;;;5082242;28;20219;-45
2023/01/25 00:50:38;;;;;;;18.60;16.80;;;14.10;62.00;;;;;;5087009;28;20634;-45
2023/01/25 00:53:08;;;;;;;19.40;17.50;;;14.10;62.00;;;;;;5086604;28;20201;-45
2023/01/25 00:55:38;;;;;;;19.03;17.13;;;14.10;62.00;;;;;;5082167;28;20229;-45
2023/01/25 00:58:11;;;;;;;19.40;17.60;;;14.10;62.10;;;;;;5082583;28;20191;-45
2023/01/25 01:00:42;;;;;;;19.30;17.47;;;14.10;62.00;;;;;;5087251;28;20197;-45
2023/01/25 01:03:15;;;;;;;19.50;17.70;;;14.10;62.10;;;;;;5083582;28;20251;-45
2023/01/25 01:05:46;;;;;;;19.87;18.03;;;14.10;62.10;;;;;;5075340;28;20192;-45
2023/01/25 01:08:15;;;;;;;17.77;16.07;;;14.10;62.20;;;;;;5083684;28;20201;-45
2023/01/25 01:10:47;;;;;;;19.00;17.17;;;14.10;62.20;;;;;;5086012;28;20823;-45
2023/01/25 01:13:18;;;;;;;17.53;15.90;;;14.10;62.20;;;;;;5088368;28;20743;-45
2023/01/25 01:15:50;;;;;;;18.70;16.90;;;14.10;62.10;;;;;;5089046;28;20212;-45
2023/01/25 01:18:22;;;;;;;19.60;17.80;;;14.10;62.20;;;;;;5085415;28;20211;-44
2023/01/25 01:20:54;;;;;;;18.27;16.47;;;14.00;62.10;;;;;;5089009;28;20231;-45
2023/01/25 01:23:29;;;;;;;19.60;17.50;;;14.00;62.10;;;;;;5087559;28;20204;-45
2023/01/25 01:26:10;;;;;;;18.20;16.60;;;14.10;62.20;;;;;;5091076;28;20235;-45
2023/01/25 01:28:42;;;;;;;18.17;16.47;;;14.00;62.10;;;;;;5091711;28;20200;-45
2023/01/25 01:31:14;;;;;;;20.30;18.27;;;14.00;62.10;;;;;;5092907;28;20231;-45
2023/01/25 01:33:47;;;;;;;19.00;17.20;;;14.00;62.10;;;;;;5079427;28;20249;-45
2023/01/25 01:36:20;;;;;;;19.33;17.53;;;14.00;62.10;;;;;;5067463;28;20220;-52
2023/01/25 01:38:51;;;;;;;18.23;16.53;;;14.10;62.10;;;;;;5091124;28;20288;-45
2023/01/25 01:41:25;;;;;;;18.93;17.13;;;14.00;62.10;;;;;;5090069;28;20620;-45
2023/01/25 01:43:57;;;;;;;18.57;16.70;;;14.00;62.10;;;;;;5089845;28;20200;-45
2023/01/25 01:46:38;;;;;;;17.37;15.77;;;14.00;62.10;;;;;;5086632;28;20213;-45
2023/01/25 01:49:32;;;;;;;18.93;17.13;;;14.00;62.10;;;;;;5087719;28;20193;-45
2023/01/25 01:52:14;;;;;;;18.63;16.87;;;14.00;62.10;;;;;;5090272;28;20193;-45
2023/01/25 01:54:53;;;;;;;18.97;17.20;;;14.00;62.20;;;;;;5089999;28;20682;-45
2023/01/25 01:57:39;;;;;;;17.93;16.23;;;14.00;62.10;;;;;;5070272;28;20193;-45
2023/01/25 02:00:23;;;;;;;18.83;16.93;;;14.00;62.20;;;;;;5065384;28;20220;-45
2023/01/25 02:02:54;;;;;;;18.33;16.63;;;14.00;62.30;;;;;;5074619;28;20187;-45
2023/01/25 02:05:49;;;;;;;19.67;17.80;;;14.00;62.40;;;;;;5071894;28;20200;-45
2023/01/25 02:08:20;;;;;;;18.00;16.30;;;14.00;62.30;;;;;;5066166;28;20209;-45
2023/01/25 02:10:48;;;;;;;18.60;16.70;;;14.00;62.20;;;;;;5087047;28;20274;-45
2023/01/25 02:13:20;;;;;;;18.80;17.00;;;14.10;62.30;;;;;;5066140;28;20198;-45
2023/01/25 02:15:52;;;;;;;18.57;16.87;;;14.00;62.10;;;;;;5091708;28;20212;-45
2023/01/25 02:18:19;;;;;;;18.20;16.40;;;14.00;62.20;;;;;;5068807;28;20192;-45
2023/01/25 02:20:53;;;;;;;17.17;15.57;;;14.00;62.20;;;;;;5088277;28;20640;-45
2023/01/25 02:23:58;;;;;;;19.07;17.27;;;14.00;62.30;;;;;;5052543;28;20197;-45
2023/01/25 02:26:30;;;;;;;19.10;17.30;;;14.00;62.20;;;;;;5086714;27;20238;-45
2023/01/25 02:29:09;;;;;;;17.20;15.67;;;14.00;62.40;;;;;;5093321;28;20192;-45
2023/01/25 02:31:48;;;;;;;18.60;16.80;;;14.00;62.40;;;;;;5092777;28;20271;-45
2023/01/25 02:34:17;;;;;;;19.00;17.20;;;14.00;62.40;;;;;;5102418;28;20220;-45
2023/01/25 02:36:52;;;;;;;17.80;16.10;;;14.00;62.40;;;;;;5084028;28;20188;-45
2023/01/25 02:39:42;;;;;;;18.77;15.70;;;14.00;62.30;;;;;;5101668;27;20644;-45
2023/01/25 02:42:14;;;;;;;18.17;16.37;;;14.00;62.30;;;;;;5089432;28;20184;-45
2023/01/25 02:44:43;;;;;;;18.40;16.60;;;14.00;62.40;;;;;;5094670;28;20228;-45
2023/01/25 02:47:09;;;;;;;19.03;17.13;;;14.00;63.00;;;;;;5087702;28;20223;-45
2023/01/25 02:49:41;;;;;;;18.43;16.73;;;14.00;62.50;;;;;;5091938;28;20214;-45
2023/01/25 02:52:12;;;;;;;18.23;16.53;;;14.00;62.40;;;;;;5108532;27;20224;-45
2023/01/25 02:54:44;;;;;;;18.60;16.87;;;14.00;62.40;;;;;;5109244;28;20200;-45
2023/01/25 02:57:16;;;;;;;18.17;16.47;;;14.00;62.40;;;;;;5110370;27;20210;-45
2023/01/25 02:59:52;;;;;;;19.10;17.30;;;14.00;62.40;;;;;;5108709;27;20208;-45
2023/01/25 03:02:22;;;;;;;17.77;15.97;;;14.00;62.40;;;;;;5103478;28;20272;-45
2023/01/25 03:04:54;;;;;;;18.13;16.43;;;14.00;62.40;;;;;;5104548;27;20199;-45
2023/01/25 03:07:25;;;;;;;17.43;15.83;;;14.00;62.50;;;;;;5111906;27;20196;-45
2023/01/25 03:09:57;;;;;;;17.90;16.20;;;14.00;62.50;;;;;;5093477;28;20732;-45
2023/01/25 03:12:29;;;;;;;17.63;16.00;;;14.00;62.50;;;;;;5109651;27;20203;-45
2023/01/25 03:15:01;;;;;;;20.00;18.10;;;14.00;62.40;;;;;;5114300;27;20649;-45
2023/01/25 03:17:31;;;;;;;19.70;17.73;;;14.00;62.50;;;;;;5110460;27;20197;-45
2023/01/25 03:20:05;;;;;;;19.30;17.43;;;14.00;62.50;;;;;;5092146;28;20193;-45
2023/01/25 03:22:37;;;;;;;17.20;15.40;;;13.90;62.40;;;;;;5091776;28;20212;-45
2023/01/25 03:25:10;;;;;;;18.80;16.83;;;14.00;62.50;;;;;;5115320;28;20207;-45
2023/01/25 03:27:39;;;;;;;18.57;16.77;;;14.00;62.60;;;;;;5093312;28;20298;-45
2023/01/25 03:30:21;;;;;;;18.23;16.47;;;14.00;62.50;;;;;;5076406;28;20265;-45
2023/01/25 03:32:51;;;;;;;19.73;17.67;;;14.00;62.50;;;;;;5093632;28;20189;-45
2023/01/25 03:35:21;;;;;;;17.30;15.47;;;14.00;62.50;;;;;;5098450;28;20298;-45
2023/01/25 03:37:53;;;;;;;17.63;15.90;;;13.90;62.40;;;;;;5097473;28;20200;-45
2023/01/25 03:40:22;;;;;;;18.57;16.77;;;14.00;62.50;;;;;;5072536;28;20216;-45
2023/01/25 03:42:52;;;;;;;17.80;16.10;;;14.00;62.50;;;;;;5072482;28;20643;-45
2023/01/25 03:45:24;;;;;;;19.57;17.67;;;14.00;62.50;;;;;;5104321;28;20188;-45
2023/01/25 03:47:55;;;;;;;19.13;17.40;;;14.00;62.50;;;;;;5091157;28;20680;-45
2023/01/25 03:50:25;;;;;;;18.33;16.63;;;14.00;62.50;;;;;;5086229;28;20193;-45
2023/01/25 03:53:00;;;;;;;18.83;16.93;;;14.00;62.50;;;;;;5088460;28;20196;-45
2023/01/25 03:55:31;;;;;;;19.27;17.47;;;14.00;62.40;;;;;;5088202;28;20209;-45
2023/01/25 03:58:03;;;;;;;19.60;17.70;;;13.90;62.40;;;;;;5091949;28;20645;-45
2023/01/25 04:00:35;;;;;;;18.87;17.00;;;14.00;62.50;;;;;;5070793;28;20251;-45
2023/01/25 04:03:20;;;;;;;19.77;17.77;;;14.00;62.50;;;;;;5087078;28;20569;-45
2023/01/25 04:05:52;;;;;;;19.00;17.20;;;14.00;62.50;;;;;;5094866;28;20197;-45
2023/01/25 04:08:23;;;;;;;20.60;18.63;;;13.90;62.50;;;;;;5046065;28;20498;-45
2023/01/25 04:11:04;;;;;;;19.50;17.40;;;13.90;62.50;;;;;;5084526;28;20691;-45
2023/01/25 04:13:37;;;;;;;18.83;17.00;;;13.90;62.30;;;;;;5074332;28;20197;-45
2023/01/25 04:16:10;;;;;;;19.30;17.50;;;14.00;63.10;;;;;;5069719;28;20238;-45
2023/01/25 04:18:43;;;;;;;19.27;17.47;;;13.90;62.50;;;;;;5071124;28;20227;-45
2023/01/25 04:21:14;;;;;;;19.43;17.43;;;13.90;62.30;;;;;;5085541;28;20196;-45
2023/01/25 04:23:44;;;;;;;18.83;17.03;;;13.90;62.30;;;;;;5048816;28;20352;-45
2023/01/25 04:26:16;;;;;;;18.87;17.07;;;13.90;62.30;;;;;;5092883;28;20273;-45
2023/01/25 04:28:45;;;;;;;21.17;19.20;;;13.90;62.40;;;;;;5117833;28;20606;-45
2023/01/25 04:31:15;;;;;;;19.73;17.93;;;13.90;62.40;;;;;;5107849;28;20204;-45
2023/01/25 04:33:45;;;;;;;18.93;17.13;;;13.90;62.40;;;;;;5086854;28;20614;-46
2023/01/25 04:36:18;;;;;;;19.70;17.70;;;13.90;62.30;;;;;;5101405;28;20653;-45
2023/01/25 04:38:48;;;;;;;19.60;17.80;;;13.90;62.40;;;;;;5107546;28;20695;-45
2023/01/25 04:41:16;;;;;;;20.97;18.80;;;13.90;62.30;;;;;;5094862;28;20200;-45
2023/01/25 04:43:47;;;;;;;18.33;16.43;;;13.90;62.50;;;;;;5110327;28;20188;-45
2023/01/25 04:46:17;;;;;;;20.43;18.53;;;13.90;62.50;;;;;;5087950;28;20200;-45
2023/01/25 04:48:48;;;;;;;20.20;18.17;;;13.90;62.30;;;;;;5109892;28;20261;-45
2023/01/25 04:51:19;;;;;;;20.07;18.07;;;13.90;62.30;;;;;;5093596;28;20204;-45
2023/01/25 04:53:49;;;;;;;18.47;16.80;;;13.90;62.30;;;;;;5111404;28;20219;-45
2023/01/25 04:56:18;;;;;;;19.37;17.57;;;13.90;62.30;;;;;;5113115;27;20222;-45
2023/01/25 04:58:49;;;;;;;20.80;18.37;;;13.90;62.30;;;;;;5110650;27;20248;-45
2023/01/25 05:01:20;;;;;;;18.77;17.03;;;13.90;62.30;;;;;;5111010;27;20637;-45
2023/01/25 05:03:51;;;;;;;18.80;17.03;;;13.90;62.30;;;;;;5100461;28;20215;-45
2023/01/25 05:06:21;;;;;;;19.10;17.20;;;13.90;62.30;;;;;;5090226;28;20632;-45
2023/01/25 05:08:49;;;;;;;19.23;17.37;;;13.90;62.20;;;;;;5114772;27;20200;-45
2023/01/25 05:11:22;;;;;;;18.80;17.00;;;13.90;62.20;;;;;;5094813;28;20211;-45
2023/01/25 05:13:53;;;;;;;18.80;17.00;;;13.90;62.20;;;;;;5115421;27;20640;-45
2023/01/25 05:16:26;;;;;;;18.60;16.80;;;13.90;62.20;;;;;;5108057;27;20517;-45
2023/01/25 05:18:57;;;;;;;19.67;17.87;;;13.90;62.10;;;;;;5112904;27;20216;-45
2023/01/25 05:24:14;;;;;;;19.77;17.77;;;13.90;62.00;;;;;;5104888;27;20204;-45
2023/01/25 05:29:41;;;;;;;18.60;16.70;;;13.90;62.00;;;;;;5118820;27;20193;-45
2023/01/25 05:32:15;;;;;;;19.10;17.30;;;13.80;62.00;;;;;;5108217;28;20264;-45
2023/01/25 05:34:59;;;;;;;18.63;16.93;;;13.90;62.00;;;;;;5086286;28;20304;-45
2023/01/25 05:37:30;;;;;;;19.07;16.93;;;13.90;62.10;;;;;;5110809;28;20188;-45
2023/01/25 05:40:00;;;;;;;18.83;16.93;;;13.80;62.20;;;;;;5112266;27;20204;-45
2023/01/25 05:42:31;;;;;;;19.30;17.23;;;13.80;62.10;;;;;;5092308;28;20211;-45
2023/01/25 05:45:06;;;;;;;17.77;16.07;;;13.90;62.20;;;;;;5110066;28;20211;-45
2023/01/25 05:47:38;;;;;;;17.87;16.13;;;13.80;62.10;;;;;;5089951;28;20206;-44
2023/01/25 05:50:07;;;;;;;19.27;17.37;;;13.80;62.10;;;;;;5108948;28;20621;-45
2023/01/25 05:52:47;;;;;;;17.83;16.13;;;13.80;62.10;;;;;;5110429;28;20196;-45
2023/01/25 05:55:17;;;;;;;18.33;16.33;;;13.80;62.10;;;;;;5120874;27;20770;-45
2023/01/25 05:57:49;;;;;;;19.23;17.30;;;13.90;62.00;;;;;;5103184;28;20192;-45
2023/01/25 06:00:20;;;;;;;17.37;15.77;;;13.90;62.10;;;;;;5104145;27;20216;-45
2023/01/25 06:02:51;;;;;;;17.80;16.13;;;13.90;62.00;;;;;;5110626;27;20192;-45
2023/01/25 06:05:22;;;;;;;18.63;16.73;;;13.80;61.90;;;;;;5093539;27;20207;-45
2023/01/25 06:07:53;;;;;;;16.63;15.03;;;13.80;61.90;;;;;;5110062;28;20196;-45
2023/01/25 06:10:24;;;;;;;17.20;15.60;;;13.80;61.80;;;;;;5107986;28;20261;-45
2023/01/25 06:12:58;;;;;;;17.10;15.40;;;13.80;61.80;;;;;;5107914;27;20244;-45
2023/01/25 06:15:31;;;;;;;18.73;17.03;;;13.80;61.80;;;;;;5093752;27;20247;-45
2023/01/25 06:18:06;;;;;;;17.83;16.13;;;13.80;61.80;;;;;;5109670;28;20272;-45
2023/01/25 06:20:43;;;;;;;17.47;15.87;;;13.80;61.80;;;;;;5096331;27;20274;-45
2023/01/25 06:23:13;;;;;;;19.07;17.27;;;13.80;61.70;;;;;;5110044;28;20617;-45
2023/01/25 06:25:46;;;;;;;19.07;17.27;;;13.80;61.80;;;;;;5108513;27;20244;-45
2023/01/25 06:28:23;;;;;;;19.90;18.07;;;13.80;61.80;;;;;;5106975;28;20188;-45
2023/01/25 06:30:55;;;;;;;18.87;17.07;;;13.80;61.70;;;;;;5110418;27;20618;-45
2023/01/25 06:33:26;;;;;;;17.03;15.43;;;13.80;61.70;;;;;;5109405;28;20188;-45
2023/01/25 06:36:05;;;;;;;17.83;16.13;;;13.80;61.70;;;;;;5110237;27;20200;-45
2023/01/25 06:38:35;;;;;;;19.70;17.87;;;13.80;61.80;;;;;;5096505;27;20184;-45
2023/01/25 06:41:10;;;;;;;19.10;17.20;;;13.80;61.70;;;;;;5093991;27;20311;-45
2023/01/25 06:43:48;;;;;;;18.80;16.90;;;13.80;61.70;;;;;;5095217;28;20196;-45
2023/01/25 06:46:21;;;;;;;19.10;17.10;;;13.80;61.60;;;;;;5084564;28;20274;-44
2023/01/25 06:48:51;;;;;;;19.47;17.57;;;13.80;61.80;;;;;;5106213;28;20295;-45
2023/01/25 06:51:20;;;;;;;19.27;17.27;;;13.80;61.80;;;;;;5109118;28;20649;-45
2023/01/25 06:53:51;;;;;;;19.33;17.43;;;13.80;61.60;;;;;;5114298;27;20216;-45
2023/01/25 06:56:22;;;;;;;19.97;18.07;;;13.80;61.60;;;;;;5106591;27;20223;-45
2023/01/25 06:58:54;;;;;;;27.77;19.13;;;13.80;61.70;;;;;;5091683;28;20203;-45
2023/01/25 07:01:26;;;;;;;27.63;19.53;;;13.80;61.80;;;;;;5105160;28;20250;-45
2023/01/25 07:03:57;;;;;;;25.97;19.73;;;13.80;61.80;;;;;;5109828;28;20208;-45
2023/01/25 07:06:30;;;;;;;24.23;19.30;;;13.80;61.70;;;;;;5055107;28;20440;-45
2023/01/25 07:09:14;;;;;;;21.40;17.97;;;13.80;61.60;;;;;;5093517;28;20199;-45
2023/01/25 07:11:45;;;;;;;24.53;19.33;;;13.80;62.20;;;;;;5101744;28;20594;-45
2023/01/25 07:14:19;;;;;;;21.07;18.27;;;13.80;61.40;;;;;;5101570;28;20637;-44
2023/01/25 07:16:53;;;;;;;21.70;18.93;;;13.80;61.40;;;;;;5106490;27;20216;-45
2023/01/25 07:19:23;;;;;;;26.20;18.00;;;13.90;61.40;;;;;;5085256;28;20779;-45
2023/01/25 07:21:54;;;;;;;22.57;17.63;;;13.90;61.40;;;;;;5094007;27;20252;-45
2023/01/25 07:24:28;;;;;;;20.97;18.43;;;13.80;61.40;;;;;;5104684;27;20188;-45
2023/01/25 07:27:11;;;;;;;24.90;18.30;;;13.80;61.30;;;;;;5108982;27;20269;-45
2023/01/25 07:29:40;;;;;;;20.50;18.30;;;13.80;61.20;;;;;;5116484;27;20535;-45
2023/01/25 07:32:15;;;;;;;23.67;18.13;;;13.90;61.10;;;;;;5106296;27;20223;-45
2023/01/25 07:34:51;;;;;;;20.40;18.20;;;13.80;61.00;;;;;;5110961;28;20200;-45
2023/01/25 07:37:26;;;;;;;23.17;18.30;;;13.80;60.90;;;;;;5108310;27;20232;-45
2023/01/25 07:40:01;;;;;;;21.67;19.33;;;13.80;60.80;;;;;;5117063;27;20206;-45
2023/01/25 07:42:33;;;;;;;22.23;19.83;;;13.90;60.80;;;;;;5107329;27;20598;-45
2023/01/25 07:45:04;;;;;;;20.17;17.97;;;13.90;60.70;;;;;;5090543;28;20208;-45
2023/01/25 07:47:36;;;;;;;21.60;19.30;;;13.80;60.60;;;;;;5107703;28;20215;-45
2023/01/25 07:50:08;;;;;;;22.67;19.20;;;13.80;60.60;;;;;;5105379;27;20212;-45
2023/01/25 07:52:37;;;;;;;22.63;19.30;;;13.90;61.20;;;;;;5093346;28;20212;-45
2023/01/25 07:55:10;;;;;;;22.43;19.70;;;13.80;60.40;;;;;;5101376;28;20208;-45
2023/01/25 07:57:42;;;;;;;228.40;58.43;;;13.80;60.50;;;;;;5101261;28;20208;-46
2023/01/25 08:00:16;;;;;;;177.30;50.37;;;13.80;61.10;;;;;;5101406;28;20189;-46
2023/01/25 08:02:51;;;;;;;180.00;50.27;;;14.00;61.80;;;;;;5110279;27;20194;-45
2023/01/25 08:05:27;;;;;;;173.00;46.47;;;14.20;62.90;;;;;;5101611;28;20195;-45
2023/01/25 08:07:58;;;;;;;138.80;43.17;;;14.50;62.40;;;;;;5108535;27;20196;-46
2023/01/25 08:10:27;;;;;;;140.13;43.47;;;14.70;61.90;;;;;;5104660;28;20184;-45
2023/01/25 08:12:58;;;;;;;107.13;38.43;;;15.00;61.50;;;;;;5108540;27;20272;-45
2023/01/25 08:15:28;;;;;;;99.60;37.33;;;15.20;60.70;;;;;;5113724;27;20853;-46
2023/01/25 08:18:00;;;;;;;97.40;35.70;;;15.50;60.20;;;;;;5106649;28;20249;-45
2023/01/25 08:20:30;;;;;;;85.03;33.87;;;15.70;59.80;;;;;;5088624;28;20200;-46
2023/01/25 08:22:59;;;;;;;86.43;32.20;;;15.90;59.40;;;;;;5115828;27;20215;-46
2023/01/25 08:25:30;;;;;;;70.77;30.90;;;16.10;58.70;;;;;;5104880;28;20204;-45
2023/01/25 08:27:59;;;;;;;78.13;28.83;;;16.30;58.10;;;;;;5071937;28;20193;-46
2023/01/25 08:30:30;;;;;;;62.43;25.83;;;16.60;57.80;;;;;;5096806;28;20196;-46
2023/01/25 08:33:01;;;;;;;62.80;26.07;;;16.80;57.40;;;;;;5107007;28;20188;-45
2023/01/25 08:35:30;;;;;;;59.73;24.63;;;16.90;57.30;;;;;;5107234;28;20215;-46
2023/01/25 08:38:01;;;;;;;50.30;23.90;;;17.10;56.90;;;;;;5101161;28;20208;-45
2023/01/25 08:40:30;;;;;;;51.50;25.43;;;17.30;56.60;;;;;;5105350;28;20197;-45
2023/01/25 08:43:06;;;;;;;48.67;21.63;;;17.50;55.90;;;;;;5106401;28;20216;-45
2023/01/25 08:45:38;;;;;;;36.33;21.03;;;17.60;55.40;;;;;;5107458;28;20319;-46
2023/01/25 08:48:06;;;;;;;40.20;20.20;;;17.80;55.30;;;;;;5101930;28;20204;-45
2023/01/25 08:50:37;;;;;;;36.43;18.60;;;17.90;55.30;;;;;;5089290;28;20342;-46
2023/01/25 08:53:07;;;;;;;38.60;19.03;;;18.00;54.90;;;;;;5088289;28;20188;-45
2023/01/25 08:55:35;;;;;;;33.17;17.20;;;18.10;54.60;;;;;;5110240;28;20640;-48
2023/01/25 08:58:03;;;;;;;35.77;18.77;;;18.30;54.50;;;;;;5107052;28;20638;-48
2023/01/25 09:00:33;;;;;;;30.90;17.70;;;18.50;54.20;;;;;;5105092;28;20671;-48
2023/01/25 09:03:02;;;;;;;30.30;16.73;;;18.60;53.60;;;;;;5105919;28;20200;-49
2023/01/25 09:05:37;;;;;;;30.50;17.10;;;18.70;53.60;;;;;;5108197;28;20610;-46
2023/01/25 09:08:09;;;;;;;28.00;16.80;;;18.80;53.50;;;;;;5104418;28;20541;-46
2023/01/25 09:10:39;;;;;;;22.43;15.20;;;18.90;53.50;;;;;;5085806;28;20279;-46
2023/01/25 09:13:15;;;;;;;29.27;17.00;;;19.00;53.50;;;;;;5104176;28;20657;-45
2023/01/25 09:15:44;;;;;;;26.03;15.90;;;19.00;52.90;;;;;;5106797;28;20306;-46
2023/01/25 09:18:13;;;;;;;22.23;14.10;;;19.10;52.20;;;;;;5094754;28;20820;-45
2023/01/25 09:20:41;;;;;;;23.60;14.87;;;19.20;52.30;;;;;;5112217;28;20259;-46
2023/01/25 09:23:09;;;;;;;21.83;14.33;;;19.30;52.10;;;;;;5107229;28;20827;-45
2023/01/25 09:25:38;;;;;;;21.97;14.40;;;19.50;52.00;;;;;;5090532;28;20672;-45
2023/01/25 09:28:10;;;;;;;22.70;14.00;;;19.60;51.60;;;;;;5104374;28;20188;-45
2023/01/25 09:30:41;;;;;;;18.17;13.80;;;19.60;51.50;;;;;;5108123;28;20214;-48
2023/01/25 09:33:18;;;;;;;18.20;13.90;;;19.70;51.20;;;;;;5115535;27;20574;-48
2023/01/25 09:35:49;;;;;;;20.90;14.07;;;19.80;50.90;;;;;;5111547;27;20192;-48
2023/01/25 09:38:27;;;;;;;18.67;13.43;;;19.90;50.90;;;;;;5098552;27;20196;-48
2023/01/25 09:41:07;;;;;;;16.87;13.17;;;20.00;50.60;;;;;;5092162;28;20261;-46
2023/01/25 09:43:56;;;;;;;15.37;12.23;;;20.10;50.60;;;;;;5093804;27;20718;-46
2023/01/25 09:46:51;;;;;;;14.10;12.60;;;20.10;50.50;;;;;;5105817;28;20198;-46
2023/01/25 09:50:08;;;;;;;14.43;12.20;;;20.30;50.20;;;;;;5091344;27;20292;-46
2023/01/25 09:53:05;;;;;;;14.43;12.90;;;20.30;50.20;;;;;;5098198;28;20192;-49
2023/01/25 09:55:35;;;;;;;15.50;13.00;;;20.40;49.70;;;;;;5104547;28;20200;-48
2023/01/25 09:58:17;;;;;;;14.67;13.07;;;20.50;49.60;;;;;;5104176;27;20227;-48
2023/01/25 10:00:49;;;;;;;14.47;12.67;;;20.60;49.50;;;;;;5106575;28;20273;-49
2023/01/25 10:03:31;;;;;;;14.40;12.43;;;20.60;49.30;;;;;;5091953;28;20581;-48
2023/01/25 10:06:00;;;;;;;15.63;12.27;;;20.70;49.20;;;;;;5112207;27;20641;-45
2023/01/25 10:08:58;;;;;;;14.40;12.33;;;20.80;49.20;;;;;;5093782;27;20202;-45
2023/01/25 10:11:32;;;;;;;13.07;11.77;;;20.90;49.00;;;;;;5107047;27;20187;-45
2023/01/25 10:14:00;;;;;;;12.77;10.77;;;20.90;48.90;;;;;;5105152;28;20278;-45
2023/01/25 10:16:59;;;;;;;13.60;12.23;;;21.00;49.10;;;;;;5089362;28;20235;-45
2023/01/25 10:19:57;;;;;;;12.47;11.00;;;21.10;48.80;;;;;;5113565;27;20192;-46
2023/01/25 10:22:47;;;;;;;13.77;12.43;;;21.10;48.50;;;;;;5090980;28;20192;-48
2023/01/25 10:26:06;;;;;;;11.70;10.50;;;21.10;48.40;;;;;;5113170;27;20292;-48
2023/01/25 10:29:11;;;;;;;13.40;12.10;;;21.20;48.20;;;;;;5042491;28;20331;-48
2023/01/25 10:32:01;;;;;;;13.60;12.20;;;21.20;48.00;;;;;;5083899;28;20732;-46
2023/01/25 10:34:42;;;;;;;10.73;9.70;;;21.30;47.80;;;;;;5085077;28;20193;-47
2023/01/25 10:37:34;;;;;;;12.03;10.87;;;21.40;48.30;;;;;;5082838;28;20290;-46
2023/01/25 10:40:23;;;;;;;12.40;11.20;;;21.50;48.00;;;;;;5063423;28;20509;-46
2023/01/25 10:43:15;;;;;;;11.63;10.47;;;21.60;47.80;;;;;;5054718;28;20189;-48
2023/01/25 10:45:50;;;;;;;12.63;11.40;;;21.70;47.50;;;;;;5066311;28;20629;-48
2023/01/25 10:48:32;;;;;;;12.13;10.83;;;21.80;47.40;;;;;;5080262;28;20234;-49
2023/01/25 10:51:03;;;;;;;11.87;10.83;;;21.90;47.20;;;;;;5088388;28;20193;-48
2023/01/25 10:53:43;;;;;;;11.77;10.33;;;22.00;46.90;;;;;;5069930;28;20696;-48
2023/01/25 10:56:25;;;;;;;12.57;10.60;;;22.00;46.90;;;;;;5085224;28;20193;-49
2023/01/25 10:59:04;;;;;;;11.43;10.33;;;22.10;47.10;;;;;;5070385;28;20177;-49
2023/01/25 11:01:35;;;;;;;11.50;10.40;;;22.20;46.70;;;;;;5084436;28;20610;-49
2023/01/25 11:04:24;;;;;;;13.40;11.70;;;22.20;46.70;;;;;;5074442;28;20204;-48
2023/01/25 11:06:58;;;;;;;13.43;10.87;;;22.30;46.30;;;;;;5079174;28;20201;-48
2023/01/25 11:09:32;;;;;;;11.30;10.30;;;22.30;46.20;;;;;;5089090;28;20196;-48
2023/01/25 11:12:20;;;;;;;11.10;10.10;;;22.30;46.50;;;;;;5081760;28;20289;-46
2023/01/25 11:14:52;;;;;;;13.43;10.90;;;22.40;46.70;;;;;;5083899;28;20196;-46
2023/01/25 11:17:30;;;;;;;11.00;10.00;;;22.40;46.30;;;;;;5075527;28;20302;-47
2023/01/25 11:20:20;;;;;;;10.70;9.70;;;22.50;46.20;;;;;;5067217;28;20209;-46
2023/01/25 11:22:53;;;;;;;12.50;11.40;;;22.50;46.30;;;;;;5086864;28;20193;-49
2023/01/25 11:25:35;;;;;;;12.27;10.97;;;22.60;45.70;;;;;;5050161;28;20209;-46
2023/01/25 11:28:18;;;;;;;12.73;11.50;;;22.60;45.50;;;;;;5081161;28;20191;-47
2023/01/25 11:30:50;;;;;;;11.10;10.03;;;22.70;45.50;;;;;;5099076;28;20192;-49
2023/01/25 11:33:25;;;;;;;11.53;10.43;;;22.70;45.90;;;;;;5105486;27;20325;-49
2023/01/25 11:36:32;;;;;;;10.23;9.33;;;22.80;45.80;;;;;;5090396;28;20192;-49
2023/01/25 11:39:34;;;;;;;10.53;9.53;;;22.80;46.60;;;;;;5106815;28;20644;-48
2023/01/25 11:42:45;;;;;;;11.00;10.10;;;22.70;47.00;;;;;;5104240;28;20345;-49
2023/01/25 11:45:27;;;;;;;11.77;10.67;;;22.70;46.80;;;;;;5108072;27;20212;-49
2023/01/25 11:48:16;;;;;;;11.87;10.77;;;22.60;46.10;;;;;;5094884;28;20204;-48
2023/01/25 11:51:09;;;;;;;10.80;9.80;;;22.70;46.00;;;;;;5100873;28;20220;-46
2023/01/25 11:54:25;;;;;;;11.33;10.13;;;22.80;45.90;;;;;;5107550;28;20188;-46
2023/01/25 11:57:32;;;;;;;14.67;13.37;;;22.90;45.70;;;;;;5099114;28;20864;-46
2023/01/25 12:00:39;;;;;;;15.13;13.83;;;22.70;45.50;;;;;;5101440;28;20207;-46
2023/01/25 12:03:29;;;;;;;17.20;15.63;;;22.40;45.90;;;;;;5059458;28;20539;-46
2023/01/25 12:06:38;;;;;;;17.43;15.87;;;22.20;46.00;;;;;;5110441;28;20202;-46
2023/01/25 12:09:27;;;;;;;18.17;16.47;;;21.90;46.50;;;;;;5104861;28;20240;-46
2023/01/25 12:12:30;;;;;;;19.00;17.20;;;21.70;46.40;;;;;;5100953;28;20192;-46
2023/01/25 12:15:39;;;;;;;18.03;16.33;;;21.50;46.90;;;;;;5106976;27;20193;-46
2023/01/25 12:18:40;;;;;;;17.93;16.23;;;21.30;47.20;;;;;;5096022;28;20244;-46
2023/01/25 12:21:25;;;;;;;22.27;17.43;;;21.20;47.50;;;;;;5108401;28;20249;-48
2023/01/25 12:24:36;;;;;;;20.00;18.10;;;21.00;46.70;;;;;;5107591;28;20192;-47
2023/01/25 12:27:22;;;;;;;21.20;19.20;;;20.80;47.00;;;;;;5098940;28;20227;-48
2023/01/25 12:30:42;;;;;;;20.80;18.83;;;20.60;46.80;;;;;;5105553;28;20193;-48
2023/01/25 12:33:27;;;;;;;19.37;17.57;;;20.50;47.10;;;;;;5024083;28;20406;-47
2023/01/25 12:36:34;;;;;;;19.90;17.93;;;20.30;47.40;;;;;;5107124;28;20223;-47
2023/01/25 12:39:26;;;;;;;21.13;19.13;;;20.20;47.30;;;;;;5024938;28;20650;-47
2023/01/25 12:42:11;;;;;;;20.90;18.83;;;20.00;48.00;;;;;;5106797;28;20210;-45
2023/01/25 12:44:51;;;;;;;21.00;19.00;;;19.90;47.50;;;;;;5106589;28;20204;-45
2023/01/25 12:48:16;;;;;;;20.10;18.10;;;19.80;47.80;;;;;;5089512;28;20192;-45
2023/01/25 12:50:55;;;;;;;20.37;18.37;;;19.70;47.80;;;;;;5082272;28;20208;-45
2023/01/25 12:53:41;;;;;;;21.57;19.47;;;19.50;47.90;;;;;;5101310;28;20200;-45
2023/01/25 12:56:50;;;;;;;20.00;18.10;;;19.50;48.20;;;;;;5085624;28;20355;-47
2023/01/25 12:59:49;;;;;;;19.27;17.47;;;19.30;48.20;;;;;;5095834;28;20198;-47
2023/01/25 13:02:36;;;;;;;19.50;17.70;;;19.40;48.80;;;;;;5112175;28;20501;-47
2023/01/25 13:05:29;;;;;;;18.87;17.07;;;19.30;48.10;;;;;;5109355;27;20207;-46
2023/01/25 13:08:31;;;;;;;19.43;17.63;;;19.20;48.90;;;;;;5112145;27;20241;-47
2023/01/25 13:11:38;;;;;;;19.47;17.57;;;19.20;49.70;;;;;;5115526;27;20198;-45
2023/01/25 13:14:24;;;;;;;19.07;17.17;;;19.10;49.60;;;;;;5108636;27;20208;-44
2023/01/25 13:17:42;;;;;;;23.27;17.67;;;19.10;49.50;;;;;;5112274;28;20208;-45
2023/01/25 13:20:47;;;;;;;19.00;17.20;;;19.10;50.00;;;;;;5065009;28;20212;-46
2023/01/25 13:23:34;;;;;;;17.47;15.77;;;19.00;49.70;;;;;;5106451;28;20188;-46